Time;durP1;ratioP1;P1;durP2;ratioP2;P2;SDS_P1;SDS_P2;PMS_P1;PMS_P2;Temp;Humidity;BMP_temperature;BMP_pressure;BME280_temperature;BME280_humidity;BME280_pressure;Samples;Min_cycle;Max_cycle;Signal;HPM_P1;HPM_P2
2022/03/17 00:01:07;;;;;;;1.10;1.00;;;;;;;24.31;9.02;102755.19;5074048;28;20032;-73
2022/03/17 00:03:33;;;;;;;0.80;0.80;;;;;;;24.34;8.84;102754.75;5052848;28;20029;-73
2022/03/17 00:05:58;;;;;;;1.20;1.10;;;;;;;24.32;8.69;102762.34;5052925;28;20048;-74
2022/03/17 00:08:24;;;;;;;1.20;1.10;;;;;;;24.31;8.86;102761.47;5054518;28;20028;-73
2022/03/17 00:10:49;;;;;;;0.85;0.85;;;;;;;24.32;8.58;102760.44;5054041;28;20021;-73
2022/03/17 00:13:15;;;;;;;1.00;1.00;;;;;;;24.27;8.68;102753.97;5053966;28;20024;-73
2022/03/17 00:15:40;;;;;;;1.00;0.90;;;;;;;24.30;8.89;102759.81;5054201;28;20025;-73
2022/03/17 00:18:06;;;;;;;0.85;0.85;;;;;;;24.28;8.59;102761.09;5054445;28;20090;-74
2022/03/17 00:20:32;;;;;;;0.80;0.80;;;;;;;24.26;8.80;102757.75;5054038;28;20021;-73
2022/03/17 00:22:57;;;;;;;0.80;0.80;;;;;;;24.23;8.69;102748.09;5054093;28;20104;-73
2022/03/17 00:25:22;;;;;;;1.20;1.10;;;;;;;24.27;8.61;102770.38;5053916;28;20463;-73
2022/03/17 00:27:48;;;;;;;1.00;0.90;;;;;;;24.29;8.81;102758.16;5054779;28;20041;-74
2022/03/17 00:30:13;;;;;;;1.15;1.08;;;;;;;24.25;8.61;102767.84;5054218;28;20029;-74
2022/03/17 00:32:38;;;;;;;0.85;0.80;;;;;;;24.26;8.48;102768.69;5054754;28;20456;-73
2022/03/17 00:37:51;;;;;;;1.10;1.00;;;;;;;24.26;8.83;102766.78;5054235;28;20024;-73
2022/03/17 00:40:16;;;;;;;1.17;1.08;;;;;;;24.25;8.62;102773.31;5054246;28;20021;-73
2022/03/17 00:42:41;;;;;;;1.13;1.02;;;;;;;24.24;8.50;102785.28;5054819;28;20078;-72
2022/03/17 00:45:10;;;;;;;1.00;1.00;;;;;;;24.24;8.43;102792.66;5055100;28;20032;-73
2022/03/17 00:47:37;;;;;;;0.85;0.85;;;;;;;24.23;8.56;102788.25;5055283;28;20025;-71
2022/03/17 00:50:03;;;;;;;0.80;0.80;;;;;;;24.22;8.37;102784.69;5056596;28;20029;-71
2022/03/17 00:52:28;;;;;;;1.25;1.02;;;;;;;24.23;8.50;102782.78;5057173;28;20033;-71
2022/03/17 00:54:54;;;;;;;0.90;0.90;;;;;;;24.22;8.63;102783.84;5057725;28;20033;-71
2022/03/17 00:57:19;;;;;;;1.17;1.10;;;;;;;24.23;8.54;102790.97;5057361;28;20447;-70
2022/03/17 00:59:45;;;;;;;0.90;0.90;;;;;;;24.23;8.67;102780.03;5056987;28;20025;-70
2022/03/17 01:02:10;;;;;;;0.77;0.77;;;;;;;24.22;8.50;102789.31;5065162;28;20029;-71
2022/03/17 01:04:35;;;;;;;1.20;1.10;;;;;;;24.22;8.50;102794.78;5078794;28;20031;-71
2022/03/17 01:07:01;;;;;;;0.80;0.80;;;;;;;24.20;8.36;102792.28;5079704;28;20049;-70
2022/03/17 01:09:29;;;;;;;1.73;1.13;;;;;;;24.22;8.44;102795.63;5083745;28;20047;-71
2022/03/17 01:11:55;;;;;;;1.02;0.93;;;;;;;24.21;8.62;102798.56;5084528;28;20041;-70
2022/03/17 01:14:20;;;;;;;0.75;0.75;;;;;;;24.21;8.66;102809.50;5085384;28;20040;-70
2022/03/17 01:16:46;;;;;;;0.80;0.80;;;;;;;24.19;8.41;102799.59;5085055;28;20032;-70
2022/03/17 01:19:11;;;;;;;0.90;0.90;;;;;;;24.21;8.61;102801.28;5084545;28;20029;-71
2022/03/17 01:21:36;;;;;;;0.82;0.82;;;;;;;24.19;8.61;102796.03;5083859;28;20082;-71
2022/03/17 01:24:03;;;;;;;0.80;0.80;;;;;;;24.16;8.69;102799.22;5077025;28;20048;-71
2022/03/17 01:26:28;;;;;;;0.68;0.68;;;;;;;24.19;8.76;102807.81;5074753;28;20052;-71
2022/03/17 01:28:53;;;;;;;1.10;1.00;;;;;;;24.19;8.41;102813.28;5079077;28;20037;-71
2022/03/17 01:31:23;;;;;;;0.80;0.80;;;;;;;24.18;8.58;102802.56;5076145;28;20467;-70
2022/03/17 01:33:48;;;;;;;0.80;0.80;;;;;;;24.17;8.57;102814.56;5074649;28;20032;-70
2022/03/17 01:36:13;;;;;;;1.00;0.90;;;;;;;24.18;8.34;102808.03;5073064;28;20024;-71
2022/03/17 01:38:39;;;;;;;0.80;0.80;;;;;;;24.16;8.27;102807.41;5073226;28;20493;-71
2022/03/17 01:41:04;;;;;;;0.80;0.80;;;;;;;24.17;8.31;102812.66;5073599;28;20078;-70
2022/03/17 01:43:29;;;;;;;1.02;0.80;;;;;;;24.14;8.16;102810.34;5073882;28;20028;-71
2022/03/17 01:45:55;;;;;;;1.00;0.90;;;;;;;24.15;8.18;102822.97;5074411;28;20032;-71
2022/03/17 01:48:21;;;;;;;0.80;0.80;;;;;;;24.16;8.47;102830.13;5072975;28;20482;-71
2022/03/17 01:50:48;;;;;;;1.00;0.90;;;;;;;24.15;8.49;102824.88;5072987;28;20087;-72
2022/03/17 01:53:14;;;;;;;0.90;0.90;;;;;;;24.16;8.35;102826.53;5073068;28;20028;-71
2022/03/17 01:55:39;;;;;;;0.80;0.80;;;;;;;24.14;8.50;102826.75;5071789;28;20031;-71
2022/03/17 01:58:05;;;;;;;0.80;0.77;;;;;;;24.13;8.43;102818.81;5073158;28;20025;-71
2022/03/17 02:00:30;;;;;;;0.80;0.80;;;;;;;24.16;8.44;102830.13;5071465;28;20386;-71
2022/03/17 02:02:55;;;;;;;1.20;0.95;;;;;;;24.13;8.48;102819.63;5058069;28;20044;-71
2022/03/17 02:05:21;;;;;;;0.70;0.70;;;;;;;24.06;8.30;102812.50;5053726;28;20048;-70
2022/03/17 02:07:49;;;;;;;1.00;0.93;;;;;;;24.12;8.36;102823.41;5056278;28;20449;-71
2022/03/17 02:10:14;;;;;;;1.00;0.85;;;;;;;24.11;8.18;102827.22;5056623;28;20024;-71
2022/03/17 02:15:26;;;;;;;1.10;1.00;;;;;;;24.06;8.35;102818.84;5056258;28;20040;-70
2022/03/17 02:17:52;;;;;;;0.80;0.80;;;;;;;24.12;8.30;102834.34;5056879;28;20036;-71
2022/03/17 02:20:17;;;;;;;0.80;0.80;;;;;;;24.11;8.30;102840.88;5056235;28;20429;-71
2022/03/17 02:22:49;;;;;;;1.30;0.90;;;;;;;24.10;8.38;102836.44;5056407;28;20032;-70
2022/03/17 02:25:35;;;;;;;0.90;0.80;;;;;;;24.08;7.91;102840.47;5056219;28;20029;-70
2022/03/17 02:28:02;;;;;;;0.85;0.85;;;;;;;24.10;8.15;102841.91;5054978;28;20036;-71
2022/03/17 02:30:28;;;;;;;1.00;0.90;;;;;;;24.09;8.15;102847.59;5056284;28;20044;-73
2022/03/17 02:32:59;;;;;;;0.90;0.90;;;;;;;24.08;8.21;102841.31;5056315;28;20071;-74
2022/03/17 02:35:25;;;;;;;0.73;0.73;;;;;;;24.10;8.17;102841.91;5055822;28;20439;-73
2022/03/17 02:37:50;;;;;;;1.10;1.00;;;;;;;24.07;8.31;102831.41;5056109;28;20039;-74
2022/03/17 02:40:16;;;;;;;1.15;0.85;;;;;;;24.08;8.06;102838.56;5056106;28;20025;-72
2022/03/17 02:42:41;;;;;;;1.00;1.00;;;;;;;24.08;8.26;102829.56;5055702;28;20383;-73
2022/03/17 02:45:10;;;;;;;0.88;0.77;;;;;;;24.09;8.30;102836.66;5056012;28;20029;-74
2022/03/17 02:47:37;;;;;;;0.82;0.82;;;;;;;24.09;8.45;102837.50;5055794;28;20079;-72
2022/03/17 02:50:03;;;;;;;0.80;0.80;;;;;;;24.06;8.25;102829.75;5055869;28;20047;-73
2022/03/17 02:52:29;;;;;;;0.68;0.68;;;;;;;24.06;8.04;102839.84;5055909;28;20510;-73
2022/03/17 02:54:54;;;;;;;1.02;0.80;;;;;;;24.07;7.96;102836.06;5055368;28;20078;-73
2022/03/17 02:57:20;;;;;;;0.98;0.98;;;;;;;24.05;8.10;102839.00;5055433;28;20036;-73
2022/03/17 02:59:46;;;;;;;0.88;0.88;;;;;;;24.04;8.10;102842.78;5055347;28;20040;-73
2022/03/17 03:02:14;;;;;;;0.70;0.70;;;;;;;24.04;8.11;102850.16;5062020;28;20027;-73
2022/03/17 03:04:40;;;;;;;0.70;0.70;;;;;;;24.05;8.19;102855.38;5075271;28;20448;-73
2022/03/17 03:07:06;;;;;;;0.80;0.73;;;;;;;24.04;7.90;102845.50;5075021;28;20047;-72
2022/03/17 03:09:32;;;;;;;0.80;0.80;;;;;;;24.06;8.06;102851.63;5075617;28;20031;-72
2022/03/17 03:11:57;;;;;;;0.90;0.90;;;;;;;24.04;7.97;102852.88;5075413;28;20028;-73
2022/03/17 03:14:23;;;;;;;0.60;0.60;;;;;;;24.05;7.87;102854.56;5075556;28;20025;-73
2022/03/17 03:16:49;;;;;;;0.70;0.70;;;;;;;24.04;8.04;102858.34;5074842;28;20024;-73
2022/03/17 03:19:14;;;;;;;0.77;0.77;;;;;;;24.04;7.93;102859.16;5075411;28;20035;-73
2022/03/17 03:21:40;;;;;;;0.80;0.75;;;;;;;24.04;7.98;102853.72;5075263;28;20476;-70
2022/03/17 03:24:05;;;;;;;0.95;0.90;;;;;;;24.05;7.92;102860.84;5075255;28;20025;-70
2022/03/17 03:26:31;;;;;;;0.80;0.77;;;;;;;24.05;7.97;102860.84;5074962;28;20120;-70
2022/03/17 03:28:56;;;;;;;0.70;0.70;;;;;;;24.05;7.97;102860.03;5075483;28;20041;-71
2022/03/17 03:31:22;;;;;;;0.68;0.68;;;;;;;23.93;8.08;102846.22;5075194;28;20017;-70
2022/03/17 03:33:47;;;;;;;0.88;0.88;;;;;;;24.00;7.80;102853.31;5073700;28;20143;-71
2022/03/17 03:38:57;;;;;;;0.65;0.65;;;;;;;24.00;8.04;102852.47;5074847;28;20036;-71
2022/03/17 03:41:22;;;;;;;0.70;0.70;;;;;;;24.00;7.81;102858.78;5074603;28;20028;-69
2022/03/17 03:43:47;;;;;;;0.60;0.60;;;;;;;24.00;8.05;102855.22;5074573;28;20029;-70
2022/03/17 03:46:14;;;;;;;0.70;0.70;;;;;;;24.01;8.00;102859.63;5074764;28;20066;-70
2022/03/17 03:48:40;;;;;;;0.70;0.70;;;;;;;24.00;7.86;102864.22;5074715;28;20025;-71
2022/03/17 03:51:05;;;;;;;0.65;0.65;;;;;;;24.00;7.80;102863.41;5074309;28;20024;-70
2022/03/17 03:54:13;;;;;;;0.80;0.80;;;;;;;24.02;7.93;102861.28;5074291;28;20020;-70
2022/03/17 03:56:16;;;;;;;0.70;0.70;;;;;;;24.01;7.80;102870.56;5074170;28;20111;-71
2022/03/17 03:58:41;;;;;;;0.60;0.60;;;;;;;23.99;8.03;102868.03;5074170;28;20021;-71
2022/03/17 04:01:07;;;;;;;0.80;0.80;;;;;;;23.99;7.68;102869.91;5074144;28;20390;-70
2022/03/17 04:03:32;;;;;;;0.70;0.70;;;;;;;23.98;7.83;102869.06;5057512;28;20033;-70
2022/03/17 04:05:58;;;;;;;0.80;0.80;;;;;;;24.00;8.24;102880.63;5054063;28;20055;-70
2022/03/17 04:08:23;;;;;;;0.75;0.70;;;;;;;23.95;7.99;102874.97;5052730;28;20024;-70
2022/03/17 04:10:49;;;;;;;0.90;0.90;;;;;;;23.96;7.91;102871.19;5054213;28;20071;-70
2022/03/17 04:13:14;;;;;;;0.77;0.77;;;;;;;23.95;8.03;102871.41;5054097;28;20029;-70
2022/03/17 04:15:40;;;;;;;0.77;0.77;;;;;;;24.03;7.68;102875.81;5054235;28;20040;-72
2022/03/17 04:18:05;;;;;;;0.70;0.70;;;;;;;24.05;8.02;102871.78;5054139;28;20029;-71
2022/03/17 04:20:31;;;;;;;0.88;0.88;;;;;;;24.04;7.96;102872.81;5054704;28;20025;-70
2022/03/17 04:22:56;;;;;;;1.00;0.90;;;;;;;24.13;7.78;102876.16;5053765;28;20025;-71
2022/03/17 04:25:25;;;;;;;0.68;0.68;;;;;;;24.15;8.10;102874.88;5055761;28;20025;-71
2022/03/17 04:27:50;;;;;;;0.70;0.70;;;;;;;24.16;7.75;102879.31;5053740;28;20037;-71
2022/03/17 04:30:16;;;;;;;0.80;0.80;;;;;;;24.22;7.90;102877.59;5054108;28;20356;-70
2022/03/17 04:32:41;;;;;;;0.73;0.73;;;;;;;24.26;7.82;102876.06;5053830;28;20029;-70
2022/03/17 04:35:07;;;;;;;0.60;0.60;;;;;;;24.28;8.01;102876.69;5053940;28;20023;-71
2022/03/17 04:37:32;;;;;;;0.73;0.73;;;;;;;24.27;7.81;102866.00;5053803;28;20033;-70
2022/03/17 04:40:01;;;;;;;0.50;0.50;;;;;;;24.32;8.04;102872.47;5053604;28;20021;-70
2022/03/17 04:42:27;;;;;;;1.00;0.90;;;;;;;24.37;7.74;102869.91;5053855;28;20029;-71
2022/03/17 04:44:52;;;;;;;1.00;0.80;;;;;;;24.43;7.76;102878.28;5054619;28;20348;-71
2022/03/17 04:47:18;;;;;;;0.88;0.73;;;;;;;24.47;7.68;102883.06;5053459;28;20081;-71
2022/03/17 04:49:43;;;;;;;1.05;0.95;;;;;;;24.46;7.64;102886.06;5054224;28;20032;-71
2022/03/17 04:53:27;;;;;;;0.85;0.82;;;;;;;24.50;7.72;102885.38;5053566;28;20028;-71
2022/03/17 04:54:54;;;;;;;1.00;0.88;;;;;;;24.58;7.62;102886.19;5053140;28;20179;-74
2022/03/17 04:57:20;;;;;;;0.80;0.80;;;;;;;24.59;8.00;102888.72;5053410;28;20021;-73
2022/03/17 04:59:45;;;;;;;1.23;1.00;;;;;;;24.61;7.93;102902.16;5053323;28;20037;-73
2022/03/17 05:02:13;;;;;;;0.70;0.70;;;;;;;24.64;8.01;102899.00;5057658;28;20343;-74
2022/03/17 05:04:39;;;;;;;0.70;0.70;;;;;;;24.67;7.54;102901.28;5073384;28;20047;-73
2022/03/17 05:07:04;;;;;;;0.70;0.70;;;;;;;24.68;7.71;102908.41;5072664;28;20078;-73
2022/03/17 05:09:33;;;;;;;0.60;0.60;;;;;;;24.72;7.63;102909.66;5073475;28;20451;-71
2022/03/17 05:11:58;;;;;;;0.75;0.70;;;;;;;24.76;7.67;102919.09;5073343;28;20024;-72
2022/03/17 05:14:24;;;;;;;0.77;0.77;;;;;;;24.75;7.77;102920.16;5073260;28;20066;-73
2022/03/17 05:16:49;;;;;;;1.08;0.70;;;;;;;24.74;7.71;102919.31;5073370;28;20359;-72
2022/03/17 05:19:14;;;;;;;0.70;0.70;;;;;;;24.74;7.84;102937.63;5073145;28;20032;-73
2022/03/17 05:21:40;;;;;;;0.77;0.77;;;;;;;24.81;7.67;102938.41;5073219;28;20028;-73
2022/03/17 05:24:05;;;;;;;0.70;0.70;;;;;;;24.79;7.67;102931.50;5073088;28;20459;-72
2022/03/17 05:26:31;;;;;;;0.95;0.85;;;;;;;24.83;7.83;102933.56;5073031;28;20029;-72
2022/03/17 05:28:56;;;;;;;1.10;0.63;;;;;;;24.82;7.91;102937.38;5073423;28;20389;-72
2022/03/17 05:31:22;;;;;;;1.13;0.95;;;;;;;24.85;7.69;102930.59;5072387;28;20029;-72
2022/03/17 05:33:48;;;;;;;1.17;0.82;;;;;;;24.86;7.82;102938.59;5072856;28;20024;-71
2022/03/17 05:36:13;;;;;;;0.60;0.60;;;;;;;24.90;7.87;102938.97;5072909;28;20051;-73
2022/03/17 05:38:39;;;;;;;0.90;0.82;;;;;;;24.91;7.69;102933.28;5072819;28;20032;-74
2022/03/17 05:41:05;;;;;;;1.00;0.90;;;;;;;24.92;7.78;102937.72;5076820;28;20035;-73
2022/03/17 05:43:31;;;;;;;0.88;0.88;;;;;;;24.91;7.39;102936.00;5077573;28;20028;-73
2022/03/17 05:45:56;;;;;;;0.95;0.90;;;;;;;24.98;7.61;102935.13;5077032;28;20539;-72
2022/03/17 05:48:22;;;;;;;0.98;0.90;;;;;;;25.02;7.69;102936.34;5076698;28;20020;-73
2022/03/17 05:50:47;;;;;;;0.80;0.80;;;;;;;25.00;7.69;102927.53;5076723;28;20463;-70
2022/03/17 05:53:13;;;;;;;1.00;0.90;;;;;;;25.01;7.80;102932.78;5076411;28;20027;-70
2022/03/17 05:55:38;;;;;;;0.90;0.90;;;;;;;24.93;7.92;102936.63;5076471;28;20505;-70
2022/03/17 05:58:04;;;;;;;1.23;1.00;;;;;;;24.93;7.92;102933.88;5076350;28;20109;-70
2022/03/17 06:00:29;;;;;;;2.78;0.90;;;;;;;25.04;8.18;102945.16;5076167;28;20025;-70
2022/03/17 06:02:55;;;;;;;1.25;0.90;;;;;;;25.12;8.19;102953.09;5066568;28;20404;-69
2022/03/17 06:05:21;;;;;;;0.85;0.80;;;;;;;25.16;8.08;102948.84;5056464;28;20056;-70
2022/03/17 06:07:48;;;;;;;1.35;1.20;;;;;;;25.16;8.25;102946.13;5056062;28;20033;-71
2022/03/17 06:10:15;;;;;;;1.15;1.00;;;;;;;25.18;8.13;102946.75;5056083;28;20352;-70
2022/03/17 06:12:40;;;;;;;0.82;0.82;;;;;;;25.21;7.98;102946.28;5055942;28;20025;-70
2022/03/17 06:15:07;;;;;;;0.80;0.70;;;;;;;25.20;8.23;102941.88;5056458;28;20024;-70
2022/03/17 06:17:42;;;;;;;0.82;0.82;;;;;;;25.20;8.24;102950.09;5056361;28;20029;-70
2022/03/17 06:20:09;;;;;;;1.10;1.00;;;;;;;25.27;7.86;102956.38;5055815;28;20406;-71
2022/03/17 06:22:37;;;;;;;1.15;1.05;;;;;;;25.32;7.96;102957.59;5056143;28;20033;-70
2022/03/17 06:25:03;;;;;;;1.15;0.90;;;;;;;25.36;8.18;102947.88;5055702;28;20036;-71
2022/03/17 06:27:28;;;;;;;1.17;1.08;;;;;;;25.28;8.26;102944.38;5055630;28;20452;-70
2022/03/17 06:29:54;;;;;;;0.60;0.60;;;;;;;25.39;8.18;102952.88;5055920;28;20028;-71
2022/03/17 06:32:19;;;;;;;0.80;0.60;;;;;;;25.39;8.13;102952.88;5054852;28;20032;-71
2022/03/17 06:34:44;;;;;;;1.08;0.93;;;;;;;25.43;8.41;102954.13;5056523;28;20033;-71
2022/03/17 06:37:10;;;;;;;0.85;0.85;;;;;;;25.47;8.44;102952.59;5056290;28;20374;-70
2022/03/17 06:39:35;;;;;;;0.95;0.90;;;;;;;25.48;8.43;102959.78;5055373;28;20029;-71
2022/03/17 06:42:01;;;;;;;1.90;1.10;;;;;;;25.44;8.55;102950.31;5056436;28;20416;-70
2022/03/17 06:44:26;;;;;;;1.30;0.70;;;;;;;25.48;8.59;102962.50;5055513;28;20484;-70
2022/03/17 06:46:52;;;;;;;1.33;0.85;;;;;;;25.51;8.53;102958.47;5055331;28;20040;-69
2022/03/17 06:49:18;;;;;;;0.80;0.80;;;;;;;25.49;8.60;102947.72;5055291;28;20027;-71
2022/03/17 06:51:43;;;;;;;1.33;1.08;;;;;;;25.54;8.61;102958.00;5054596;28;20039;-70
2022/03/17 06:54:08;;;;;;;1.25;1.00;;;;;;;25.55;8.61;102952.31;5055378;28;20071;-70
2022/03/17 06:56:34;;;;;;;1.85;1.20;;;;;;;25.59;8.72;102960.91;5055579;28;20494;-71
2022/03/17 06:58:59;;;;;;;1.05;0.98;;;;;;;25.56;8.71;102954.00;5055394;28;20082;-72
2022/03/17 07:01:25;;;;;;;1.45;1.02;;;;;;;25.62;8.99;102944.03;5055036;28;20416;-70
2022/03/17 07:03:50;;;;;;;1.63;1.00;;;;;;;25.60;8.91;102955.22;5071745;28;20038;-70
2022/03/17 07:06:15;;;;;;;1.83;1.00;;;;;;;25.66;9.21;102954.31;5075339;28;20045;-70
2022/03/17 07:08:41;;;;;;;1.65;1.13;;;;;;;25.65;9.42;102958.13;5076182;28;20027;-73
2022/03/17 07:11:06;;;;;;;2.22;1.40;;;;;;;25.72;9.43;102963.53;5075086;28;20040;-71
2022/03/17 07:13:31;;;;;;;4.38;1.58;;;;;;;25.68;9.41;102956.81;5075004;28;20036;-72
2022/03/17 07:15:57;;;;;;;2.60;1.52;;;;;;;25.75;9.91;102963.06;5074743;28;20028;-72
2022/03/17 07:18:22;;;;;;;2.83;1.55;;;;;;;25.76;9.82;102952.94;5074775;28;20040;-71
2022/03/17 07:20:48;;;;;;;3.40;1.60;;;;;;;25.80;9.90;102960.50;5074914;28;20050;-71
2022/03/17 07:23:14;;;;;;;4.32;1.83;;;;;;;25.81;9.93;102972.28;5075236;28;20025;-71
2022/03/17 07:25:39;;;;;;;2.83;1.70;;;;;;;25.81;10.04;102962.16;5075949;28;20021;-71
2022/03/17 07:28:05;;;;;;;3.85;1.60;;;;;;;25.77;10.10;102960.09;5075423;28;20036;-71
2022/03/17 07:30:31;;;;;;;6.38;2.67;;;;;;;25.79;10.10;102968.94;5075559;28;20047;-72
2022/03/17 07:32:58;;;;;;;6.20;3.40;;;;;;;25.83;10.11;102964.66;5075203;28;20032;-70
2022/03/17 07:35:25;;;;;;;5.22;2.53;;;;;;;25.85;10.32;102978.97;5073815;28;20074;-71
2022/03/17 07:37:51;;;;;;;6.72;2.88;;;;;;;25.88;10.29;102966.72;5074940;28;20025;-70
2022/03/17 07:40:16;;;;;;;5.22;2.00;;;;;;;25.88;10.30;102977.69;5074494;28;20023;-71
2022/03/17 07:42:42;;;;;;;2.53;1.63;;;;;;;25.90;10.09;102970.06;5075273;28;20047;-70
2022/03/17 07:45:08;;;;;;;2.75;1.85;;;;;;;25.92;10.17;102974.22;5074700;28;20040;-71
2022/03/17 07:47:33;;;;;;;2.15;1.60;;;;;;;25.91;10.19;102971.75;5074770;28;20058;-71
2022/03/17 07:50:04;;;;;;;2.70;1.75;;;;;;;25.90;9.88;102973.63;5074600;28;20078;-71
2022/03/17 07:52:30;;;;;;;2.97;1.65;;;;;;;25.88;9.79;102972.19;5074917;28;20065;-71
2022/03/17 07:54:55;;;;;;;1.90;1.40;;;;;;;25.92;9.96;102978.88;5074014;28;20052;-70
2022/03/17 07:57:21;;;;;;;1.90;1.50;;;;;;;25.93;10.05;102986.88;5074466;28;20040;-70
2022/03/17 07:59:46;;;;;;;2.25;1.58;;;;;;;25.98;9.94;102978.84;5057047;28;20036;-71
2022/03/17 08:02:12;;;;;;;1.70;1.20;;;;;;;26.01;9.85;102983.88;5072956;28;20442;-71
2022/03/17 08:04:38;;;;;;;2.60;1.63;;;;;;;25.99;9.76;102994.22;5036694;28;20060;-71
2022/03/17 08:07:03;;;;;;;1.67;1.30;;;;;;;26.00;9.94;102992.31;5054114;28;20088;-70
2022/03/17 08:09:29;;;;;;;1.50;1.10;;;;;;;26.03;9.89;102995.44;5054727;28;20356;-71
2022/03/17 08:11:55;;;;;;;1.75;1.40;;;;;;;26.04;10.25;102993.53;5054632;28;20468;-71
2022/03/17 08:14:20;;;;;;;1.45;1.00;;;;;;;26.14;10.12;102998.47;5054916;28;20025;-71
2022/03/17 08:16:45;;;;;;;1.17;1.08;;;;;;;26.11;10.32;102996.19;5055119;28;20021;-71
2022/03/17 08:19:12;;;;;;;1.30;1.20;;;;;;;26.02;10.20;102985.53;5057452;28;20025;-75
2022/03/17 08:21:39;;;;;;;1.83;1.00;;;;;;;26.10;10.29;102997.28;5064301;28;20022;-76
2022/03/17 08:24:08;;;;;;;1.35;1.08;;;;;;;26.12;10.53;102984.19;5068831;28;20064;-75
2022/03/17 08:26:34;;;;;;;1.02;0.93;;;;;;;26.16;10.34;102999.09;5064841;28;20032;-76
2022/03/17 08:28:59;;;;;;;1.10;1.00;;;;;;;26.14;10.21;102996.56;5060677;28;20021;-75
2022/03/17 08:31:24;;;;;;;1.30;1.20;;;;;;;26.08;10.70;102983.78;5058648;28;20037;-77
2022/03/17 08:33:50;;;;;;;1.20;1.10;;;;;;;26.14;10.71;102988.34;5056203;28;20029;-76
2022/03/17 08:36:17;;;;;;;1.63;1.00;;;;;;;26.15;10.84;102990.03;5056354;28;20029;-76
2022/03/17 08:38:42;;;;;;;1.10;0.90;;;;;;;26.11;10.76;102980.56;5063715;28;20082;-78
2022/03/17 08:41:08;;;;;;;1.38;1.20;;;;;;;26.21;11.04;103002.78;5064321;28;20085;-76
2022/03/17 08:43:33;;;;;;;3.42;1.15;;;;;;;26.24;10.89;102993.28;5055757;28;20422;-77
2022/03/17 08:51:26;;;;;;;1.05;0.80;;;;;;;26.25;10.72;102986.75;5054786;28;20113;-76
2022/03/17 08:53:52;;;;;;;4.55;2.13;;;;;;;26.33;10.75;102997.38;5057468;28;20033;-76
2022/03/17 08:56:18;;;;;;;6.00;2.90;;;;;;;26.37;10.76;102997.75;5055788;28;20025;-76
2022/03/17 08:58:44;;;;;;;6.78;4.03;;;;;;;26.34;10.66;102999.06;5054674;28;20041;-76
2022/03/17 09:01:10;;;;;;;15.45;6.38;;;;;;;26.37;10.99;103001.34;5054902;28;20017;-76
2022/03/17 09:03:36;;;;;;;6.03;2.90;;;;;;;26.31;10.44;102999.53;5048698;28;20037;-77
2022/03/17 09:06:01;;;;;;;2.97;1.48;;;;;;;26.37;10.57;102997.75;5039589;28;20180;-75
2022/03/17 09:08:27;;;;;;;2.53;1.30;;;;;;;26.35;10.60;102995.25;5072490;28;20020;-75
2022/03/17 09:10:55;;;;;;;5.22;1.35;;;;;;;26.37;10.75;102997.75;5074680;28;20071;-75
2022/03/17 09:13:22;;;;;;;1.80;1.30;;;;;;;26.24;10.63;102987.81;5073778;28;20048;-76
2022/03/17 09:15:49;;;;;;;1.92;1.20;;;;;;;26.38;10.68;102989.31;5071926;28;20025;-75
2022/03/17 09:18:14;;;;;;;2.92;1.30;;;;;;;26.40;10.56;102989.06;5074840;28;20025;-75
2022/03/17 09:20:40;;;;;;;3.53;1.20;;;;;;;26.40;10.48;102995.38;5072183;28;20031;-75
2022/03/17 09:23:09;;;;;;;1.50;1.30;;;;;;;26.40;10.44;102987.16;5073153;28;20070;-75
2022/03/17 09:25:35;;;;;;;2.75;1.30;;;;;;;26.38;10.46;102986.56;5072812;28;20025;-75
2022/03/17 09:28:03;;;;;;;1.98;1.20;;;;;;;26.36;10.42;102982.38;5073874;28;20362;-75
2022/03/17 09:30:29;;;;;;;1.30;1.00;;;;;;;26.45;10.50;102985.66;5056444;28;20458;-75
2022/03/17 09:32:54;;;;;;;1.73;1.20;;;;;;;26.41;10.34;102985.28;5073037;28;20031;-75
2022/03/17 09:35:20;;;;;;;1.30;1.02;;;;;;;26.42;10.60;102984.19;5072382;28;20028;-75
2022/03/17 09:37:48;;;;;;;1.42;1.05;;;;;;;26.45;10.37;102985.66;5073281;28;20458;-76
2022/03/17 09:40:14;;;;;;;2.72;1.08;;;;;;;26.47;10.66;102980.75;5073964;28;20028;-76
2022/03/17 09:42:39;;;;;;;1.33;0.90;;;;;;;26.47;10.61;102991.72;5076683;28;20443;-77
2022/03/17 09:45:06;;;;;;;2.47;1.25;;;;;;;26.48;10.56;102987.94;5075068;28;20366;-75
2022/03/17 09:47:36;;;;;;;1.00;1.00;;;;;;;26.48;10.55;102996.16;5074082;28;20063;-75
2022/03/17 09:50:02;;;;;;;1.10;1.00;;;;;;;26.49;10.50;102995.94;5073671;28;20024;-76
2022/03/17 09:52:27;;;;;;;1.10;0.90;;;;;;;26.49;10.39;102990.44;5073186;28;20195;-76
2022/03/17 09:54:53;;;;;;;1.83;1.00;;;;;;;26.48;10.39;102996.16;5073486;28;20462;-74
2022/03/17 09:57:19;;;;;;;1.10;1.00;;;;;;;26.50;10.37;102997.59;5072560;28;20025;-73
2022/03/17 09:59:48;;;;;;;1.00;0.90;;;;;;;26.50;10.74;102994.84;5071335;28;20378;-73
2022/03/17 10:02:16;;;;;;;1.65;1.10;;;;;;;26.50;10.69;103002.25;5072782;28;20107;-72
2022/03/17 10:04:43;;;;;;;1.30;0.90;;;;;;;26.56;10.64;103001.28;5053341;28;20040;-73
2022/03/17 10:07:08;;;;;;;0.82;0.80;;;;;;;26.52;10.53;102997.34;5052031;28;20073;-73
2022/03/17 10:09:34;;;;;;;1.08;0.73;;;;;;;26.51;10.64;103009.38;5052515;28;20456;-73
2022/03/17 10:12:03;;;;;;;1.10;1.00;;;;;;;26.52;10.45;102998.19;5052365;28;20060;-72
2022/03/17 10:14:36;;;;;;;1.25;0.90;;;;;;;26.52;10.46;103002.84;5053258;28;20021;-73
2022/03/17 10:17:06;;;;;;;2.20;0.80;;;;;;;26.58;10.76;103004.66;5053301;28;20058;-73
2022/03/17 10:19:32;;;;;;;2.67;0.85;;;;;;;26.54;10.72;102997.94;5052702;28;20021;-73
2022/03/17 10:22:12;;;;;;;3.88;1.10;;;;;;;26.54;10.68;102997.94;5052881;28;20033;-73
2022/03/17 10:24:39;;;;;;;2.47;1.60;;;;;;;26.57;10.79;102989.28;5054006;28;20024;-73
2022/03/17 10:27:04;;;;;;;3.80;1.77;;;;;;;26.60;10.54;102997.03;5055463;28;20048;-73
2022/03/17 10:29:30;;;;;;;2.83;1.30;;;;;;;26.53;10.59;102996.31;5057662;28;20022;-72
2022/03/17 10:32:11;;;;;;;5.15;1.88;;;;;;;26.56;10.65;102993.06;5056428;28;20033;-72
2022/03/17 10:34:46;;;;;;;1.67;1.35;;;;;;;26.62;10.84;102989.44;5056062;28;20025;-72
2022/03/17 10:37:12;;;;;;;2.33;1.30;;;;;;;26.58;10.86;102988.22;5056513;28;20152;-73
2022/03/17 10:39:42;;;;;;;2.80;1.50;;;;;;;26.57;10.95;102992.84;5058226;28;20034;-72
2022/03/17 10:42:12;;;;;;;2.58;1.40;;;;;;;26.42;10.91;102978.72;5056868;28;20104;-75
2022/03/17 10:44:39;;;;;;;1.92;1.10;;;;;;;26.51;10.92;102987.44;5057966;28;20039;-73
2022/03/17 10:47:05;;;;;;;1.88;0.95;;;;;;;26.56;10.85;102991.19;5056178;28;20099;-73
2022/03/17 10:49:30;;;;;;;1.63;1.10;;;;;;;26.63;10.94;102998.50;5056905;28;20417;-73
2022/03/17 10:51:56;;;;;;;1.48;0.93;;;;;;;26.54;10.91;102986.97;5058584;28;20032;-72
2022/03/17 10:54:22;;;;;;;1.85;1.10;;;;;;;26.50;10.99;102980.31;5056847;28;20100;-73
2022/03/17 10:57:05;;;;;;;1.20;1.02;;;;;;;26.59;11.25;102992.59;5056388;28;20040;-73
2022/03/17 10:59:47;;;;;;;0.98;0.90;;;;;;;26.65;11.02;102994.47;5059766;28;20042;-72
2022/03/17 11:02:17;;;;;;;1.92;0.95;;;;;;;26.55;10.73;102991.41;5057480;28;20098;-72
2022/03/17 11:04:47;;;;;;;2.20;0.80;;;;;;;26.62;10.95;102992.19;5078795;28;20049;-72
2022/03/17 11:07:14;;;;;;;1.95;1.10;;;;;;;26.65;11.08;102988.97;5080013;28;20082;-74
2022/03/17 11:09:40;;;;;;;4.45;1.10;;;;;;;26.55;11.12;102988.66;5077084;28;20025;-72
2022/03/17 11:12:17;;;;;;;1.10;1.00;;;;;;;26.60;11.07;102991.56;5076140;28;20108;-73
2022/03/17 11:14:46;;;;;;;0.85;0.85;;;;;;;26.56;10.99;102979.34;5075812;28;20032;-71
2022/03/17 11:17:14;;;;;;;2.78;1.10;;;;;;;26.60;11.02;102988.81;5057798;28;20426;-71
2022/03/17 11:19:43;;;;;;;2.22;0.95;;;;;;;26.62;11.10;102983.94;5057730;28;20056;-73
2022/03/17 11:22:10;;;;;;;1.80;1.00;;;;;;;26.67;11.09;102986.84;5058074;28;20024;-71
2022/03/17 11:24:36;;;;;;;2.25;1.10;;;;;;;26.64;11.18;102976.31;5057811;28;20028;-70
2022/03/17 11:27:14;;;;;;;1.65;1.15;;;;;;;26.68;10.90;102979.44;5075730;28;20044;-71
2022/03/17 11:29:44;;;;;;;1.55;1.00;;;;;;;26.67;11.01;102978.59;5074507;28;20025;-72
2022/03/17 11:32:29;;;;;;;2.88;1.02;;;;;;;26.64;11.18;102981.81;5074913;28;20051;-71
2022/03/17 11:35:11;;;;;;;1.80;1.00;;;;;;;26.69;11.08;102973.72;5075524;28;20198;-70
2022/03/17 11:37:36;;;;;;;1.92;0.93;;;;;;;26.71;11.03;102966.09;5075026;28;20024;-71
2022/03/17 11:40:02;;;;;;;1.90;0.90;;;;;;;26.73;11.12;102974.09;5075594;28;20110;-71
2022/03/17 11:42:47;;;;;;;1.77;0.80;;;;;;;26.70;10.97;102969.06;5076001;28;20040;-71